Time;durP1;ratioP1;P1;durP2;ratioP2;P2;SDS_P1;SDS_P2;PMS_P1;PMS_P2;Temp;Humidity;BMP_temperature;BMP_pressure;BME280_temperature;BME280_humidity;BME280_pressure;Samples;Min_cycle;Max_cycle;Signal;HPM_P1;HPM_P2
2021/04/16 00:00:29;;;;;;;4.80;2.08;;;4.80;72.60;;;;;;5052606;28;20442;-80
2021/04/16 00:02:55;;;;;;;4.38;2.08;;;4.90;72.30;;;;;;5052922;28;20013;-79
2021/04/16 00:05:21;;;;;;;3.13;1.52;;;4.80;69.80;;;;;;5052679;28;20094;-80
2021/04/16 00:07:47;;;;;;;5.05;2.10;;;4.80;70.00;;;;;;5052868;28;20040;-80
2021/04/16 00:10:16;;;;;;;4.43;2.30;;;4.80;69.50;;;;;;5052852;28;20510;-79
2021/04/16 00:12:42;;;;;;;4.23;1.90;;;4.70;70.00;;;;;;5053634;28;20037;-79
2021/04/16 00:15:17;;;;;;;4.25;2.00;;;4.70;69.60;;;;;;5052850;28;20025;-80
2021/04/16 00:17:42;;;;;;;3.38;1.70;;;4.70;71.30;;;;;;5052890;28;20064;-80
2021/04/16 00:20:12;;;;;;;7.28;2.80;;;4.70;73.70;;;;;;5052478;28;20029;-80
2021/04/16 00:22:37;;;;;;;4.93;2.67;;;4.60;71.20;;;;;;5052822;28;20108;-80
2021/04/16 00:25:05;;;;;;;6.28;2.72;;;4.60;70.30;;;;;;5052662;28;20478;-80
2021/04/16 00:27:31;;;;;;;4.63;1.95;;;4.60;69.30;;;;;;5052092;28;20025;-81
2021/04/16 00:29:56;;;;;;;4.00;1.70;;;4.50;71.20;;;;;;5052885;28;20029;-81
2021/04/16 00:32:22;;;;;;;3.95;1.75;;;4.60;71.00;;;;;;5053492;28;20409;-80
2021/04/16 00:34:47;;;;;;;4.45;2.20;;;4.50;70.20;;;;;;5052320;28;20025;-80
2021/04/16 00:37:13;;;;;;;4.72;2.20;;;4.50;70.70;;;;;;5051887;28;20017;-80
2021/04/16 00:39:40;;;;;;;6.20;2.22;;;4.50;70.00;;;;;;5052211;28;20221;-79
2021/04/16 00:42:06;;;;;;;6.57;2.55;;;4.50;70.10;;;;;;5052029;28;20044;-79
2021/04/16 00:44:32;;;;;;;5.72;2.47;;;4.40;70.00;;;;;;5051826;28;20365;-80
2021/04/16 00:47:06;;;;;;;6.07;2.10;;;4.40;70.00;;;;;;5051673;28;20449;-80
2021/04/16 00:50:01;;;;;;;4.60;1.67;;;4.40;71.60;;;;;;5051557;28;20097;-79
2021/04/16 00:52:28;;;;;;;8.82;2.22;;;4.40;74.90;;;;;;5051379;28;20116;-80
2021/04/16 00:54:54;;;;;;;5.28;1.80;;;4.40;76.10;;;;;;5051758;28;20024;-80
2021/04/16 00:57:22;;;;;;;5.75;2.55;;;4.40;74.10;;;;;;5050833;28;20032;-79
2021/04/16 00:59:52;;;;;;;5.28;2.35;;;4.40;77.40;;;;;;5052053;28;20027;-79
2021/04/16 01:02:17;;;;;;;7.03;2.40;;;4.40;74.10;;;;;;5051371;28;20376;-80
2021/04/16 01:04:44;;;;;;;5.35;2.08;;;4.40;72.60;;;;;;5051663;28;20115;-80
2021/04/16 01:07:11;;;;;;;7.20;2.22;;;4.30;71.80;;;;;;5051352;28;20060;-80
2021/04/16 01:09:37;;;;;;;4.18;2.58;;;4.30;72.20;;;;;;5051537;28;20013;-80
2021/04/16 01:12:08;;;;;;;4.63;2.20;;;4.30;77.80;;;;;;5051301;28;20041;-79
2021/04/16 01:14:36;;;;;;;6.50;2.28;;;4.30;76.00;;;;;;5051569;28;20365;-80
2021/04/16 01:17:03;;;;;;;7.38;2.47;;;4.30;74.60;;;;;;5051702;28;20017;-79
2021/04/16 01:19:42;;;;;;;5.10;2.50;;;4.30;72.80;;;;;;5051354;28;20021;-79
2021/04/16 01:22:20;;;;;;;7.53;2.75;;;4.30;72.70;;;;;;5052954;28;20470;-80
2021/04/16 01:24:50;;;;;;;5.07;2.25;;;4.20;73.70;;;;;;5051909;28;20024;-79
2021/04/16 01:27:15;;;;;;;7.15;2.80;;;4.20;74.10;;;;;;5051282;28;20396;-80
2021/04/16 01:29:44;;;;;;;6.63;2.78;;;4.20;73.50;;;;;;5051476;28;20108;-79
2021/04/16 01:32:12;;;;;;;6.07;2.45;;;4.10;73.70;;;;;;5051509;28;20025;-78
2021/04/16 01:34:38;;;;;;;10.10;2.53;;;4.10;74.80;;;;;;5051473;28;20184;-80
2021/04/16 01:37:04;;;;;;;6.80;2.40;;;4.10;73.80;;;;;;5051377;28;20048;-80
2021/04/16 01:39:31;;;;;;;5.03;2.55;;;4.10;74.00;;;;;;5051123;28;20516;-79
2021/04/16 01:41:58;;;;;;;5.45;2.65;;;4.10;74.30;;;;;;5051337;28;20079;-79
2021/04/16 01:44:27;;;;;;;6.75;2.22;;;4.00;75.60;;;;;;5051154;28;20021;-80
2021/04/16 01:46:57;;;;;;;5.75;2.83;;;4.00;75.80;;;;;;5051200;28;20473;-79
2021/04/16 01:49:25;;;;;;;7.13;2.72;;;4.00;78.10;;;;;;5051138;28;20572;-79
2021/04/16 01:51:52;;;;;;;7.93;2.22;;;4.00;76.30;;;;;;5051246;28;20468;-80
2021/04/16 01:54:33;;;;;;;5.28;2.22;;;4.00;78.10;;;;;;5050904;28;20027;-78
2021/04/16 01:57:02;;;;;;;6.28;2.97;;;4.00;77.50;;;;;;5038155;28;20485;-80
2021/04/16 01:59:30;;;;;;;8.00;2.85;;;4.00;75.90;;;;;;5050565;28;20021;-79
2021/04/16 02:01:57;;;;;;;5.95;2.78;;;4.00;76.50;;;;;;5050910;28;20453;-79
2021/04/16 02:04:23;;;;;;;6.13;2.83;;;4.00;77.20;;;;;;5050907;28;20501;-79
2021/04/16 02:06:50;;;;;;;7.88;2.78;;;4.00;76.20;;;;;;5050929;28;20120;-79
2021/04/16 02:09:19;;;;;;;6.75;2.58;;;4.00;77.40;;;;;;5050908;28;20025;-79
2021/04/16 02:11:46;;;;;;;8.45;3.33;;;3.90;80.00;;;;;;5051028;28;20087;-79
2021/04/16 02:14:24;;;;;;;6.43;3.20;;;3.90;77.10;;;;;;5051569;28;20120;-79
2021/04/16 02:16:56;;;;;;;7.10;2.83;;;3.90;76.60;;;;;;5051451;28;20016;-79
2021/04/16 02:19:23;;;;;;;8.40;3.72;;;3.90;76.80;;;;;;5051899;28;20017;-79
2021/04/16 02:21:50;;;;;;;4.28;2.25;;;3.90;76.80;;;;;;5050812;28;20052;-79
2021/04/16 02:24:17;;;;;;;9.00;3.35;;;3.90;78.80;;;;;;5050340;28;20021;-79
2021/04/16 02:26:43;;;;;;;8.50;2.85;;;3.80;79.50;;;;;;5051869;28;20279;-79
2021/04/16 02:29:12;;;;;;;7.85;3.33;;;3.90;78.80;;;;;;5050625;28;20305;-79
2021/04/16 02:31:42;;;;;;;7.32;2.97;;;3.90;78.50;;;;;;5051716;28;20021;-79
2021/04/16 02:34:14;;;;;;;;;;;3.80;77.80;;;;;;5052507;28;20032;-79
2021/04/16 02:36:39;;;;;;;5.22;2.58;;;3.80;78.90;;;;;;5051523;28;20260;-79
2021/04/16 02:39:07;;;;;;;8.82;2.92;;;3.80;79.00;;;;;;5050689;28;20013;-78
2021/04/16 02:41:33;;;;;;;8.10;2.85;;;3.80;79.70;;;;;;5050607;28;20534;-78
2021/04/16 02:43:58;;;;;;;5.70;2.90;;;3.80;78.80;;;;;;5050724;28;20049;-78
2021/04/16 02:46:24;;;;;;;9.02;3.83;;;3.80;80.00;;;;;;5050333;28;20021;-78
2021/04/16 02:48:49;;;;;;;8.98;3.50;;;3.80;78.30;;;;;;5050720;28;20484;-79
2021/04/16 02:51:15;;;;;;;4.30;2.22;;;3.70;78.40;;;;;;5050655;28;20162;-78
2021/04/16 02:53:40;;;;;;;10.40;3.50;;;3.80;83.00;;;;;;5050201;28;20021;-79
2021/04/16 02:56:06;;;;;;;6.50;3.10;;;3.80;81.00;;;;;;5050465;28;20017;-79
2021/04/16 02:58:32;;;;;;;6.55;3.38;;;3.80;80.90;;;;;;5051725;28;20032;-79
2021/04/16 03:00:57;;;;;;;7.47;2.78;;;3.80;79.70;;;;;;5050270;28;20106;-78
2021/04/16 03:03:23;;;;;;;6.20;2.35;;;3.80;79.90;;;;;;5050192;28;20020;-78
2021/04/16 03:05:49;;;;;;;5.43;2.40;;;3.80;81.60;;;;;;5051879;28;20010;-78
2021/04/16 03:08:15;;;;;;;8.57;3.17;;;3.70;81.90;;;;;;5052921;28;20020;-78
2021/04/16 03:10:41;;;;;;;4.93;2.30;;;3.70;79.80;;;;;;5052754;28;20021;-78
2021/04/16 03:13:06;;;;;;;6.13;3.38;;;3.70;81.50;;;;;;5050697;28;20075;-78
2021/04/16 03:15:34;;;;;;;5.07;2.50;;;3.70;80.30;;;;;;5050681;28;20343;-79
2021/04/16 03:18:00;;;;;;;9.07;3.17;;;3.70;80.50;;;;;;5051708;28;20074;-79
2021/04/16 03:20:27;;;;;;;11.50;4.25;;;3.70;80.90;;;;;;5052580;28;20021;-79
2021/04/16 03:22:53;;;;;;;8.38;3.13;;;3.70;80.40;;;;;;5053758;28;20052;-79
2021/04/16 03:25:19;;;;;;;9.02;3.25;;;3.70;79.60;;;;;;5053524;28;20056;-79
2021/04/16 03:27:44;;;;;;;7.03;2.90;;;3.70;79.90;;;;;;5053760;28;20041;-79
2021/04/16 03:30:16;;;;;;;7.72;3.38;;;3.70;82.20;;;;;;5053841;28;20021;-79
2021/04/16 03:32:42;;;;;;;8.07;3.42;;;3.70;80.70;;;;;;5053514;28;20013;-79
2021/04/16 03:35:09;;;;;;;9.68;3.75;;;3.60;80.40;;;;;;5053839;28;20361;-78
2021/04/16 03:37:36;;;;;;;9.05;3.53;;;3.60;82.20;;;;;;5053082;28;20047;-79
2021/04/16 03:40:03;;;;;;;5.30;2.40;;;3.60;81.00;;;;;;5053733;28;20068;-79
2021/04/16 03:42:28;;;;;;;11.05;3.80;;;3.60;82.10;;;;;;5053338;28;20028;-79
2021/04/16 03:44:54;;;;;;;7.90;4.03;;;3.60;81.10;;;;;;5054789;28;20360;-80
2021/04/16 03:47:19;;;;;;;8.30;3.13;;;3.60;83.10;;;;;;5053403;28;20036;-80
2021/04/16 03:49:45;;;;;;;8.63;3.10;;;3.60;83.40;;;;;;5053609;28;20036;-80
2021/04/16 03:52:12;;;;;;;8.45;3.63;;;3.60;82.70;;;;;;5053399;28;20047;-79
2021/04/16 03:54:37;;;;;;;10.40;3.75;;;3.60;82.20;;;;;;5054487;28;20040;-80
2021/04/16 03:57:05;;;;;;;9.05;3.30;;;3.50;81.80;;;;;;5053411;28;20048;-80
2021/04/16 03:59:30;;;;;;;11.68;4.07;;;3.50;82.30;;;;;;5052975;28;20385;-80
2021/04/16 04:01:56;;;;;;;9.82;3.58;;;3.50;82.10;;;;;;5053132;28;20082;-80
2021/04/16 04:04:22;;;;;;;9.05;3.47;;;3.50;81.90;;;;;;5054274;28;20025;-80
2021/04/16 04:06:49;;;;;;;8.18;3.85;;;3.50;82.30;;;;;;5053055;28;20025;-80
2021/04/16 04:09:16;;;;;;;9.30;3.47;;;3.50;82.50;;;;;;5053267;28;20027;-80
2021/04/16 04:11:41;;;;;;;9.60;3.65;;;3.50;82.60;;;;;;5052627;28;20045;-80
2021/04/16 04:14:07;;;;;;;5.72;3.03;;;3.50;83.20;;;;;;5053123;28;20055;-79
2021/04/16 04:16:48;;;;;;;5.97;2.45;;;3.50;83.00;;;;;;5052752;28;20032;-79
2021/04/16 04:19:14;;;;;;;7.75;3.53;;;3.50;83.80;;;;;;5052930;28;20017;-80
2021/04/16 04:21:40;;;;;;;7.28;3.30;;;3.50;83.80;;;;;;5052519;28;20013;-79
2021/04/16 04:24:06;;;;;;;9.07;3.03;;;3.50;83.30;;;;;;5065017;28;20025;-80
2021/04/16 04:26:32;;;;;;;7.88;2.92;;;3.50;83.70;;;;;;5057660;28;20032;-80
2021/04/16 04:28:57;;;;;;;12.10;4.15;;;3.50;83.90;;;;;;5053972;28;20020;-80
2021/04/16 04:31:23;;;;;;;8.30;3.20;;;3.50;83.90;;;;;;5052301;28;20021;-79
2021/04/16 04:33:48;;;;;;;8.07;3.63;;;3.60;84.00;;;;;;5052689;28;20017;-80
2021/04/16 04:36:14;;;;;;;7.60;3.42;;;3.60;83.80;;;;;;5052252;28;20107;-80
2021/04/16 04:38:40;;;;;;;10.05;4.75;;;3.60;83.80;;;;;;5053237;28;20024;-80
2021/04/16 04:41:05;;;;;;;10.40;4.55;;;3.60;83.70;;;;;;5052353;28;20049;-80
2021/04/16 04:43:31;;;;;;;11.02;3.83;;;3.60;83.60;;;;;;5052142;28;20024;-80
2021/04/16 04:45:57;;;;;;;5.03;2.13;;;3.70;84.30;;;;;;5052376;28;20021;-80
2021/04/16 04:48:22;;;;;;;8.90;4.25;;;3.70;86.10;;;;;;5052269;28;20064;-80
2021/04/16 04:50:48;;;;;;;10.23;4.57;;;3.70;84.90;;;;;;5052117;28;20025;-80
2021/04/16 04:53:13;;;;;;;9.90;4.57;;;3.80;84.70;;;;;;5052276;28;20020;-81
2021/04/16 04:55:39;;;;;;;14.52;4.63;;;3.80;84.50;;;;;;5051603;28;20056;-81
2021/04/16 04:58:04;;;;;;;7.75;2.95;;;3.80;83.60;;;;;;5051991;28;20051;-80
2021/04/16 05:00:30;;;;;;;9.88;4.60;;;3.80;84.50;;;;;;5051821;28;20021;-78
2021/04/16 05:02:56;;;;;;;8.23;4.10;;;3.80;83.60;;;;;;5051945;28;20039;-79
2021/04/16 05:05:23;;;;;;;13.25;4.75;;;3.80;84.50;;;;;;5051928;28;20438;-79
2021/04/16 05:07:49;;;;;;;14.35;4.32;;;3.80;83.60;;;;;;5051541;28;20282;-79
2021/04/16 05:10:15;;;;;;;12.93;4.68;;;3.80;83.40;;;;;;5052881;28;20522;-79
2021/04/16 05:12:41;;;;;;;9.95;4.57;;;3.80;83.80;;;;;;5051328;28;20047;-80
2021/04/16 05:15:08;;;;;;;15.63;5.28;;;3.80;83.60;;;;;;5051615;28;20532;-80
2021/04/16 05:17:34;;;;;;;7.00;3.15;;;3.80;83.30;;;;;;5051156;28;20516;-79
2021/04/16 05:20:00;;;;;;;8.27;4.60;;;3.80;85.40;;;;;;5052755;28;20029;-80
2021/04/16 05:22:26;;;;;;;12.63;4.80;;;3.80;85.20;;;;;;5051693;28;20454;-80
2021/04/16 05:24:51;;;;;;;10.25;4.72;;;3.90;84.60;;;;;;5051294;28;20090;-80
2021/04/16 05:27:21;;;;;;;15.18;4.85;;;3.90;83.70;;;;;;5051540;28;20020;-80
2021/04/16 05:29:47;;;;;;;8.77;3.55;;;4.00;84.20;;;;;;5051093;28;20028;-79
2021/04/16 05:32:13;;;;;;;12.77;4.97;;;4.00;83.70;;;;;;5051450;28;20021;-80
2021/04/16 05:34:41;;;;;;;16.00;5.57;;;4.10;83.30;;;;;;5051323;28;20067;-80
2021/04/16 05:37:07;;;;;;;9.63;4.53;;;4.10;83.20;;;;;;5052401;28;20416;-81
2021/04/16 05:39:33;;;;;;;11.70;4.00;;;4.10;83.50;;;;;;5051136;28;20021;-81
2021/04/16 05:41:59;;;;;;;11.80;4.35;;;4.20;83.80;;;;;;5050978;28;20017;-80
2021/04/16 05:44:24;;;;;;;15.77;4.82;;;4.20;83.80;;;;;;5051266;28;20021;-79
2021/04/16 05:46:50;;;;;;;11.65;4.13;;;4.30;83.30;;;;;;5051127;28;20180;-80
2021/04/16 05:49:16;;;;;;;16.30;5.03;;;4.40;83.10;;;;;;5051303;28;20082;-79
2021/04/16 05:51:42;;;;;;;9.50;4.63;;;4.50;83.50;;;;;;5051029;28;20442;-79
2021/04/16 05:54:08;;;;;;;10.65;4.80;;;4.50;83.30;;;;;;5051119;28;20025;-79
2021/04/16 05:56:33;;;;;;;8.80;4.13;;;4.60;82.50;;;;;;5052220;28;20441;-79
2021/04/16 05:58:59;;;;;;;10.10;4.57;;;4.70;82.50;;;;;;5052482;28;20361;-80
2021/04/16 06:01:25;;;;;;;12.35;5.40;;;4.80;81.90;;;;;;5051094;28;20021;-80
2021/04/16 06:03:50;;;;;;;14.57;4.95;;;4.90;81.60;;;;;;5050829;28;20463;-80
2021/04/16 06:06:16;;;;;;;12.30;5.00;;;5.00;80.90;;;;;;5050964;28;20017;-79
2021/04/16 06:08:42;;;;;;;7.57;4.30;;;5.10;80.50;;;;;;5050699;28;20017;-79
2021/04/16 06:11:09;;;;;;;12.27;4.32;;;5.20;80.70;;;;;;5051907;28;20021;-79
2021/04/16 06:13:36;;;;;;;13.55;5.68;;;5.30;80.80;;;;;;5050498;28;20370;-79
2021/04/16 06:16:03;;;;;;;8.55;4.57;;;5.30;79.50;;;;;;5050670;28;20365;-80
2021/04/16 06:18:28;;;;;;;9.82;3.33;;;5.30;79.10;;;;;;5052557;28;20028;-80
2021/04/16 06:20:54;;;;;;;7.85;3.33;;;5.40;79.20;;;;;;5050891;28;20024;-80
2021/04/16 06:23:21;;;;;;;10.85;5.18;;;5.40;80.00;;;;;;5050754;28;20061;-80
2021/04/16 06:25:46;;;;;;;12.27;5.18;;;5.40;79.70;;;;;;5051618;28;20100;-80
2021/04/16 06:28:14;;;;;;;9.27;4.28;;;5.40;78.60;;;;;;5050369;28;20235;-79
2021/04/16 06:30:41;;;;;;;14.10;5.30;;;5.40;78.30;;;;;;5050061;28;20203;-79
2021/04/16 06:33:24;;;;;;;11.48;4.32;;;5.50;78.20;;;;;;5050596;28;20431;-79
2021/04/16 06:35:56;;;;;;;11.70;4.25;;;5.60;78.30;;;;;;5050363;28;20501;-79
2021/04/16 06:38:25;;;;;;;9.32;4.30;;;5.70;78.70;;;;;;5050594;28;20108;-79
2021/04/16 06:40:53;;;;;;;9.15;4.45;;;5.70;77.90;;;;;;5050451;28;20573;-79
2021/04/16 06:43:21;;;;;;;12.68;4.15;;;5.70;77.80;;;;;;5052015;28;20234;-80
2021/04/16 06:45:57;;;;;;;11.05;4.75;;;5.80;77.70;;;;;;5050172;28;20025;-81
2021/04/16 06:48:22;;;;;;;6.60;3.30;;;5.80;77.30;;;;;;5050424;28;20107;-80
2021/04/16 06:50:49;;;;;;;13.00;4.97;;;5.80;77.40;;;;;;5050267;28;20071;-81
2021/04/16 06:53:26;;;;;;;12.27;5.57;;;5.80;77.40;;;;;;5052072;28;20025;-80
2021/04/16 06:56:10;;;;;;;16.45;5.20;;;5.80;77.50;;;;;;5053395;28;20021;-81
2021/04/16 06:59:05;;;;;;;9.80;3.63;;;5.90;77.30;;;;;;5054157;28;20024;-80
2021/04/16 07:02:02;;;;;;;14.68;5.57;;;6.00;78.10;;;;;;5054553;28;20029;-80
2021/04/16 07:05:06;;;;;;;12.43;5.63;;;6.20;77.80;;;;;;5054030;28;20112;-81
2021/04/16 07:07:40;;;;;;;10.55;4.93;;;6.60;76.90;;;;;;5052636;28;20597;-80
2021/04/16 07:10:14;;;;;;;8.73;3.92;;;7.00;76.60;;;;;;5053579;28;20044;-81
2021/04/16 07:12:40;;;;;;;11.07;4.88;;;7.30;75.60;;;;;;5054111;28;20048;-80
2021/04/16 07:15:15;;;;;;;11.82;4.95;;;7.50;74.00;;;;;;5055214;28;20040;-81
2021/04/16 07:17:43;;;;;;;8.48;2.80;;;7.70;73.60;;;;;;5057214;28;20111;-80
2021/04/16 07:20:11;;;;;;;8.55;3.90;;;7.90;73.90;;;;;;5073610;28;20028;-80
2021/04/16 07:22:42;;;;;;;9.80;2.60;;;8.10;71.50;;;;;;5073354;28;20467;-80
2021/04/16 07:25:15;;;;;;;8.10;2.72;;;8.40;73.00;;;;;;5073770;28;20020;-80
2021/04/16 07:27:48;;;;;;;11.27;4.45;;;8.50;71.20;;;;;;5073547;28;20028;-80
2021/04/16 07:30:37;;;;;;;10.98;3.35;;;8.70;70.00;;;;;;5073557;28;20024;-79
2021/04/16 07:33:03;;;;;;;6.38;1.83;;;8.90;68.80;;;;;;5073799;28;20044;-80
2021/04/16 07:35:34;;;;;;;7.85;2.63;;;9.10;70.30;;;;;;5073344;28;20013;-80
2021/04/16 07:38:02;;;;;;;;;;;9.20;69.60;;;;;;5075467;28;20032;-80
2021/04/16 07:40:33;;;;;;;10.38;3.30;;;9.30;64.50;;;;;;5073361;28;19900;-80
2021/04/16 07:42:59;;;;;;;7.07;3.25;;;9.50;62.80;;;;;;5073022;28;20031;-79
2021/04/16 07:45:24;;;;;;;4.97;1.90;;;9.60;61.70;;;;;;5073530;28;20020;-80
2021/04/16 07:48:12;;;;;;;9.57;2.97;;;9.80;67.20;;;;;;5072700;28;20460;-80
2021/04/16 07:50:43;;;;;;;11.45;4.15;;;9.80;66.30;;;;;;5056165;28;20115;-79
2021/04/16 07:53:29;;;;;;;7.97;3.72;;;10.00;60.90;;;;;;5072782;28;20032;-80
2021/04/16 07:56:10;;;;;;;8.23;3.47;;;10.20;62.10;;;;;;5072892;28;20020;-81
2021/04/16 07:58:37;;;;;;;6.95;2.85;;;10.40;60.80;;;;;;5060850;28;20020;-81
2021/04/16 08:01:22;;;;;;;7.28;3.10;;;10.70;60.20;;;;;;5063015;28;20406;-86
2021/04/16 08:03:50;;;;;;;7.55;3.05;;;10.90;56.50;;;;;;5065846;28;20013;-83
2021/04/16 08:06:47;;;;;;;4.32;1.60;;;11.20;55.90;;;;;;5061427;28;20482;-84
2021/04/16 08:09:25;;;;;;;7.05;1.83;;;11.40;63.20;;;;;;5061446;28;20049;-78
2021/04/16 08:12:13;;;;;;;4.32;1.45;;;11.60;59.50;;;;;;5052526;28;20175;-81
2021/04/16 08:14:42;;;;;;;9.20;2.67;;;11.70;63.80;;;;;;5069474;28;20025;-79
2021/04/16 08:17:21;;;;;;;6.68;1.85;;;11.80;61.90;;;;;;5054085;28;20036;-79
2021/04/16 08:19:47;;;;;;;6.80;2.17;;;11.90;60.40;;;;;;5052378;28;20365;-79
2021/04/16 08:22:31;;;;;;;5.38;2.10;;;12.10;59.60;;;;;;5053626;28;20457;-81
2021/04/16 08:25:02;;;;;;;5.30;2.05;;;12.30;62.40;;;;;;5052152;28;20170;-79
2021/04/16 08:27:51;;;;;;;5.30;2.38;;;12.50;56.50;;;;;;5052317;28;20588;-80
2021/04/16 08:30:48;;;;;;;5.03;1.60;;;12.70;49.70;;;;;;5052488;28;20021;-80
2021/04/16 08:33:29;;;;;;;18.30;2.92;;;12.80;46.70;;;;;;5054084;28;20406;-81
2021/04/16 08:36:05;;;;;;;7.70;2.28;;;13.00;50.80;;;;;;5051957;28;20017;-80
2021/04/16 08:38:38;;;;;;;7.22;1.98;;;13.20;49.60;;;;;;5052389;28;20029;-81
2021/04/16 08:41:09;;;;;;;4.32;1.80;;;13.40;56.40;;;;;;5052517;28;20021;-82
2021/04/16 08:43:44;;;;;;;6.38;1.70;;;13.40;54.10;;;;;;5052550;28;20024;-81
2021/04/16 08:46:17;;;;;;;4.50;1.70;;;13.40;49.40;;;;;;5052190;28;20013;-81
2021/04/16 08:48:46;;;;;;;4.18;1.65;;;13.40;53.90;;;;;;5052327;28;20226;-81
2021/04/16 08:51:14;;;;;;;;;;;13.50;56.30;;;;;;5054651;28;20061;-81
2021/04/16 08:53:41;;;;;;;4.57;1.52;;;13.70;51.50;;;;;;5053526;28;19901;-81
2021/04/16 08:56:31;;;;;;;4.22;1.30;;;13.80;54.60;;;;;;5052256;28;20477;-81
2021/04/16 08:58:56;;;;;;;4.80;1.55;;;13.80;53.10;;;;;;5053001;28;20052;-80
2021/04/16 09:01:34;;;;;;;3.55;1.58;;;13.80;53.90;;;;;;5053077;28;20056;-82
2021/04/16 09:04:23;;;;;;;2.67;1.10;;;13.90;45.90;;;;;;5051984;28;20159;-82
2021/04/16 09:06:56;;;;;;;4.38;1.60;;;13.90;60.30;;;;;;5053185;28;20025;-79
2021/04/16 09:09:45;;;;;;;3.92;1.02;;;14.10;52.50;;;;;;5052096;28;20116;-77
2021/04/16 09:12:40;;;;;;;4.63;1.10;;;14.40;60.90;;;;;;5051214;28;20040;-80
2021/04/16 09:15:38;;;;;;;4.65;0.88;;;14.50;62.10;;;;;;5051562;28;20083;-80
2021/04/16 09:18:11;;;;;;;5.25;0.98;;;14.50;60.50;;;;;;5050385;28;20056;-82
2021/04/16 09:20:50;;;;;;;;;;;;;;;;;;;;;
2021/04/16 09:23:26;;;;;;;3.78;1.20;;;14.40;41.90;;;;;;5052565;28;20021;-79
2021/04/16 09:26:01;;;;;;;;;;;;;;;;;;;;;
2021/04/16 09:28:36;;;;;;;3.80;1.67;;;14.80;61.00;;;;;;5052124;28;20384;-80
2021/04/16 09:31:25;;;;;;;6.55;1.65;;;15.00;43.60;;;;;;5050937;28;20013;-79
2021/04/16 09:34:15;;;;;;;5.55;1.58;;;15.30;58.20;;;;;;5050252;28;20116;-80
2021/04/16 09:36:45;;;;;;;1.77;0.98;;;15.30;45.20;;;;;;5050917;28;20108;-80
2021/04/16 09:39:31;;;;;;;5.03;1.30;;;15.30;59.80;;;;;;5050733;28;20017;-81
2021/04/16 09:41:56;;;;;;;3.58;1.30;;;15.30;61.40;;;;;;5050937;28;20024;-78
2021/04/16 09:44:34;;;;;;;3.17;1.23;;;15.20;46.60;;;;;;5052324;28;20023;-80
2021/04/16 09:47:04;;;;;;;4.30;1.27;;;15.10;59.10;;;;;;5051683;28;20025;-80
2021/04/16 09:49:39;;;;;;;2.60;1.20;;;15.30;52.10;;;;;;5051222;28;20048;-81
2021/04/16 09:52:37;;;;;;;6.22;1.40;;;15.60;51.60;;;;;;5052601;28;20049;-81
2021/04/16 09:55:41;;;;;;;3.92;1.05;;;15.70;46.70;;;;;;5050110;28;20064;-78
2021/04/16 09:58:08;;;;;;;4.40;1.90;;;15.70;57.20;;;;;;5051719;28;20048;-79
2021/04/16 10:00:39;;;;;;;2.33;0.90;;;15.50;52.80;;;;;;5050778;28;20027;-81
2021/04/16 10:03:32;;;;;;;3.10;1.27;;;15.50;60.90;;;;;;5050697;28;20462;-79
2021/04/16 10:05:59;;;;;;;5.78;1.52;;;15.70;46.60;;;;;;5050586;28;20024;-79
2021/04/16 10:08:29;;;;;;;4.75;1.45;;;16.00;57.80;;;;;;5051935;28;20025;-78
2021/04/16 10:11:04;;;;;;;4.00;1.00;;;16.10;58.30;;;;;;5052263;28;20021;-80
2021/04/16 10:13:40;;;;;;;3.92;1.08;;;16.10;61.90;;;;;;5051182;28;20095;-82
2021/04/16 10:16:25;;;;;;;4.90;1.60;;;15.90;55.00;;;;;;5051755;28;20113;-80
2021/04/16 10:18:51;;;;;;;4.10;1.70;;;16.00;59.90;;;;;;5054857;28;20083;-79
2021/04/16 10:21:17;;;;;;;1.88;0.90;;;16.10;46.40;;;;;;5051882;28;20013;-79
2021/04/16 10:24:06;;;;;;;3.90;0.98;;;16.20;58.10;;;;;;5052215;28;20028;-79
2021/04/16 12:38:34;;;;;;;4.25;1.10;;;19.80;56.70;;;;;;5053455;28;20048;-77
2021/04/16 12:41:02;;;;;;;1.77;0.70;;;19.60;38.50;;;;;;5052312;28;20445;-76
2021/04/16 12:43:29;;;;;;;4.63;1.10;;;19.60;55.10;;;;;;5052324;28;20120;-76
2021/04/16 12:45:56;;;;;;;2.30;0.90;;;19.60;48.00;;;;;;5052106;28;20017;-77
2021/04/16 12:48:24;;;;;;;2.15;0.82;;;19.70;51.60;;;;;;5052032;28;20052;-77
2021/04/16 12:50:53;;;;;;;2.25;1.02;;;19.90;47.50;;;;;;5052832;28;20099;-78
2021/04/16 12:53:19;;;;;;;2.05;0.77;;;20.00;42.50;;;;;;5053118;28;20021;-77
2021/04/16 12:55:45;;;;;;;2.65;1.05;;;20.20;55.40;;;;;;5052004;28;20021;-76
2021/04/16 12:58:20;;;;;;;1.58;0.70;;;20.30;54.90;;;;;;5051418;28;20021;-76
2021/04/16 13:00:47;;;;;;;3.33;0.88;;;20.40;56.20;;;;;;5051643;28;20437;-77
2021/04/16 13:03:17;;;;;;;1.38;0.47;;;20.30;50.30;;;;;;5053304;28;20013;-77
2021/04/16 13:05:45;;;;;;;2.10;0.60;;;20.30;53.30;;;;;;5051017;28;20017;-77
2021/04/16 13:08:10;;;;;;;2.63;0.80;;;20.30;56.80;;;;;;5052875;28;20057;-77
2021/04/16 13:10:37;;;;;;;2.40;1.08;;;20.30;49.20;;;;;;5051422;28;20059;-77
2021/04/16 13:13:03;;;;;;;2.95;0.85;;;20.20;40.00;;;;;;5052250;28;20045;-77
2021/04/16 13:15:29;;;;;;;2.60;1.02;;;20.30;47.60;;;;;;5052664;28;20078;-77
2021/04/16 13:18:25;;;;;;;3.50;0.90;;;20.30;43.20;;;;;;5052607;28;20064;-77
2021/04/16 13:20:51;;;;;;;4.07;0.77;;;20.40;53.00;;;;;;5050526;28;20021;-77
2021/04/16 13:23:17;;;;;;;3.05;1.33;;;20.40;52.20;;;;;;5052512;28;20369;-77
2021/04/16 13:25:43;;;;;;;2.00;0.80;;;20.20;33.60;;;;;;5052646;28;20021;-77
2021/04/16 13:28:09;;;;;;;3.95;0.60;;;20.10;53.10;;;;;;5051205;28;20028;-77
2021/04/16 13:30:35;;;;;;;3.78;0.95;;;19.70;58.20;;;;;;5052188;28;20017;-77
2021/04/16 13:33:19;;;;;;;1.77;0.88;;;19.40;52.30;;;;;;5052137;28;20279;-77
2021/04/16 13:35:48;;;;;;;2.45;0.60;;;19.40;58.80;;;;;;5051058;28;20017;-77
2021/04/16 13:38:18;;;;;;;2.20;0.80;;;19.50;57.00;;;;;;5052564;28;20017;-78
2021/04/16 13:40:43;;;;;;;1.10;0.65;;;19.60;55.80;;;;;;5052438;28;20278;-77
2021/04/16 13:43:10;;;;;;;2.65;0.40;;;19.70;58.60;;;;;;5052488;28;20025;-77
2021/04/16 13:45:36;;;;;;;1.63;0.50;;;19.70;58.40;;;;;;5051088;28;20020;-77
2021/04/16 13:48:02;;;;;;;1.42;0.40;;;19.80;56.50;;;;;;5052054;28;20025;-77
2021/04/16 13:50:28;;;;;;;1.13;0.57;;;19.80;57.30;;;;;;5051244;28;20110;-77
2021/04/16 13:52:53;;;;;;;5.35;0.50;;;19.80;56.80;;;;;;5052066;28;20446;-76
2021/04/16 13:55:20;;;;;;;3.10;1.30;;;20.00;57.10;;;;;;5052572;28;20412;-77
2021/04/16 13:57:45;;;;;;;2.05;0.60;;;20.10;55.50;;;;;;5051116;28;20020;-77
2021/04/16 14:00:23;;;;;;;2.30;0.93;;;20.30;56.80;;;;;;5051256;28;20017;-76
2021/04/16 14:02:52;;;;;;;4.55;1.92;;;20.40;54.80;;;;;;5050958;28;20020;-76
2021/04/16 14:05:22;;;;;;;4.30;1.83;;;20.40;35.30;;;;;;5052603;28;20017;-76
2021/04/16 14:07:49;;;;;;;3.13;1.25;;;20.30;34.80;;;;;;5052162;28;20314;-77
2021/04/16 14:10:17;;;;;;;2.83;0.70;;;20.30;43.00;;;;;;5051161;28;20100;-76
2021/04/16 14:12:43;;;;;;;1.85;0.93;;;20.50;56.20;;;;;;5052024;28;20045;-76
2021/04/16 14:15:09;;;;;;;3.88;1.50;;;20.50;52.60;;;;;;5050764;28;20576;-77
2021/04/16 14:17:45;;;;;;;2.58;0.80;;;20.30;39.00;;;;;;5052321;28;20034;-76
2021/04/16 14:20:23;;;;;;;3.03;1.20;;;20.20;46.10;;;;;;5051517;28;20014;-77
2021/04/16 14:22:52;;;;;;;5.40;1.70;;;20.20;46.60;;;;;;5050527;28;20102;-77
2021/04/16 14:25:25;;;;;;;3.13;0.93;;;20.00;46.30;;;;;;5052024;28;20064;-77
2021/04/16 14:27:51;;;;;;;1.10;0.55;;;20.00;55.70;;;;;;5050249;28;20039;-77
2021/04/16 14:30:21;;;;;;;2.38;0.88;;;20.10;55.30;;;;;;5050730;28;20104;-77
2021/04/16 14:32:50;;;;;;;2.80;0.75;;;20.10;54.60;;;;;;5052279;28;20052;-77
2021/04/16 14:35:16;;;;;;;3.30;1.00;;;20.00;52.80;;;;;;5050701;28;20138;-76
2021/04/16 14:37:41;;;;;;;0.77;0.43;;;19.90;55.30;;;;;;5052026;28;20017;-76
2021/04/16 14:40:08;;;;;;;4.53;1.35;;;19.80;56.60;;;;;;5050288;28;20028;-77
2021/04/16 14:42:33;;;;;;;1.90;0.60;;;19.70;41.10;;;;;;5050391;28;20009;-77
2021/04/16 14:45:01;;;;;;;1.80;1.10;;;19.50;56.50;;;;;;5051898;28;20445;-76
2021/04/16 14:47:27;;;;;;;4.60;1.10;;;19.50;45.00;;;;;;5050512;28;20504;-77
2021/04/16 14:49:53;;;;;;;3.15;1.30;;;19.60;53.80;;;;;;5051461;28;20013;-77
2021/04/16 14:52:19;;;;;;;2.65;1.20;;;19.70;41.90;;;;;;5050396;28;20013;-77
2021/04/16 14:54:50;;;;;;;0.95;0.60;;;19.70;44.00;;;;;;5050298;28;20103;-76
2021/04/16 14:57:23;;;;;;;2.45;0.60;;;19.70;55.50;;;;;;5049899;28;20384;-77
2021/04/16 14:59:49;;;;;;;1.65;0.60;;;19.60;56.70;;;;;;5050659;28;20369;-77
2021/04/16 15:02:14;;;;;;;2.70;1.42;;;19.60;53.00;;;;;;5050277;28;20027;-76
2021/04/16 15:04:40;;;;;;;4.18;1.50;;;19.60;47.90;;;;;;5050485;28;20103;-77
2021/04/16 15:07:08;;;;;;;3.85;1.90;;;19.60;47.30;;;;;;5051286;28;20029;-77
2021/04/16 15:09:53;;;;;;;2.00;0.90;;;19.60;36.70;;;;;;5050439;28;20105;-77
2021/04/16 15:12:23;;;;;;;2.55;0.82;;;19.30;51.70;;;;;;5050272;28;20582;-76
2021/04/16 15:14:52;;;;;;;2.05;1.27;;;19.50;53.30;;;;;;5050153;28;20051;-76
2021/04/16 15:17:18;;;;;;;2.53;0.98;;;19.40;49.60;;;;;;5053727;28;20021;-76
2021/04/16 15:19:55;;;;;;;7.30;1.27;;;19.20;53.00;;;;;;5053959;28;20020;-76
2021/04/16 15:22:39;;;;;;;3.20;0.90;;;18.80;47.70;;;;;;5053897;28;20009;-76